Inicio METAR Ruta Wind Satelite

Informe Meteorológico

Fecha: 2020/12/01 18:45:23 Local
2020.12.01 23:45 UTC


Estado: VIGENTE
Operación:VFR
Rionegro / J. M. Cordova, Colombia (SKRG) 06-08N 075-26W 2142M
Dec 01, 2020 - 06:00 PM EST / 2020.12.01 2300 UTC
Wind: from the NE (040 degrees) at 5 MPH (4 KT):0
Visibility: greater than 7 mile(s):0
Sky conditions: mostly cloudy
Weather: showers in the vicinity; Towering cumulus clouds observed
Temperature: 62 F (17 C)
Dew Point: 59 F (15 C)
Relative Humidity: 88%
Pressure (altimeter): 30.21 in. Hg (1023 hPa)
ob: SKRG 012300Z 04004KT 9999 VCSH SCT015TCU BKN200 17/15 A3021 NOSIG RMK TCU VCSH/SW
cycle: 23

SKRG 012200Z 06006KT 9999 SCT018TCU BKN200 18/15 A3019 NOSIG RMK TCU/S/W
SKRG 012100Z 08008KT 9999 SCT020TCU BKN200 22/14 A3017 NOSIG RMK TCU/S/W
SKRG 012000Z 12008KT 9999 SCT020TCU BKN200 22/13 A3018 NOSIG RMK TCU/SW
SKRG 011900Z 15008KT 9999 SCT020 BKN200 23/12 A3021 NOSIG
SKRG 011800Z 14008KT 9999 FEW020 BKN200 23/12 A3026 NOSIG

2020/12/01 18:57
TAF SKRG 011630Z 0118/0218 09010KT 9999 SCT020
BECMG 0200/0202 VRB02KT 9999 SCT015
TEMPO 0203/0206 DZRA BKN010TCU
TEMPO 0209/0212 4000 BCFG BKN005
BECMG 0213/0215 10010KT 9999 SCT020 TX22/0119Z TN13/0211Z